Chemstar Masa — 3FGM7 — position and weather

sailwx.info

Track history (hours):
 
Tides and Currents Weather Stations Pressure Air Temp Water Temp Dewpoint Dewpoint Depression Visibility Wind Speed Wind Dir Waves Ship Positions

Chemstar Masa

Last reported at 2014-Dec-18 15:33 UTC. Time now 2014-Dec-18 16:23 UTC.
Position N 43°45' E 008°41'.

Length 141 m; draft 7.4 m.

Type: Tanker. MMSI: 353456000.

Date/timePositionNaut miles runAvg speedWind from/ knotsBaromVisibWave heightAir tempDewpointWater temp
2014-Dec-18 15:33N 43°45' E 008°41'1414.2
2014-Dec-18 14:33N 43°59' E 008°47'1414.2
2014-Dec-18 13:33N 44°12' E 008°54'1211.8
2014-Dec-18 12:33N 44°24' E 008°56'1 0.9
2014-Dec-18 11:33N 44°24' E 008°55'0 0.0
2014-Dec-18 10:18N 44°24' E 008°55'0 0.0
2014-Dec-18 09:33N 44°24' E 008°55'0 0.0
2014-Dec-18 07:33N 44°24' E 008°55'0 0.0
2014-Dec-18 06:27N 44°24' E 008°55'0 0.0
2014-Dec-18 05:27N 44°24' E 008°55'0 0.0
2014-Dec-18 04:33N 44°24' E 008°55'0 0.0
2014-Dec-18 03:33N 44°24' E 008°55'0 0.0
2014-Dec-18 02:27N 44°24' E 008°55'0 0.0
2014-Dec-18 01:33N 44°24' E 008°55'0 0.0
2014-Dec-18 00:33N 44°24' E 008°55'0 0.0
2014-Dec-17 23:33N 44°24' E 008°55'0 0.0
2014-Dec-17 22:33N 44°24' E 008°55'0 0.0
2014-Dec-17 21:33N 44°24' E 008°55'0 0.0
2014-Dec-17 20:33N 44°24' E 008°55'0 0.0
2014-Dec-17 19:33N 44°24' E 008°55'0 0.0
2014-Dec-17 18:33N 44°24' E 008°55'0 0.0
2014-Dec-17 17:33N 44°24' E 008°55'0 0.0
2014-Dec-17 16:33N 44°24' E 008°55'0 0.0
2014-Dec-17 15:33N 44°24' E 008°55'0 0.0
2014-Dec-17 14:33N 44°24' E 008°55'0 0.0
2014-Dec-17 12:03N 44°24' E 008°55'0 0.0
2014-Dec-17 11:33N 44°24' E 008°55'0 0.0
2014-Dec-17 10:33N 44°24' E 008°55'0 0.0
2014-Dec-17 09:33N 44°24' E 008°55'0 0.0
2014-Dec-17 08:33N 44°24' E 008°55'0 0.0
2014-Dec-17 07:33N 44°24' E 008°55'0 0.0
2014-Dec-17 06:33N 44°24' E 008°55'0 0.0
2014-Dec-17 05:15N 44°24' E 008°55'0 0.0
2014-Dec-17 04:27N 44°24' E 008°55'0 0.0
2014-Dec-17 03:33N 44°24' E 008°55'0 0.0
2014-Dec-17 02:33N 44°24' E 008°55'0 0.0
2014-Dec-17 01:33N 44°24' E 008°55'0 0.0
2014-Dec-17 00:30N 44°24' E 008°55'0 0.0
2014-Dec-16 23:27N 44°24' E 008°55'0 0.0
2014-Dec-16 22:27N 44°24' E 008°55'0 0.0
2014-Dec-16 21:27N 44°24' E 008°55'0 0.0
2014-Dec-16 20:21N 44°24' E 008°55'0 0.0
2014-Dec-16 19:33N 44°24' E 008°55'0 0.0
2014-Dec-16 18:33N 44°24' E 008°55'0 0.0
2014-Dec-16 17:33N 44°24' E 008°55'0 0.0
2014-Dec-16 16:33N 44°24' E 008°55'5 4.9
2014-Dec-16 15:33N 44°20' E 008°59'1 1.0
2014-Dec-16 14:33N 44°19' E 008°59'1 0.9
2014-Dec-16 13:33N 44°20' E 008°59'5 5.3
2014-Dec-16 12:33N 44°15' E 008°58'7 6.6
2014-Dec-16 11:33N 44°09' E 008°54'1 0.8
2014-Dec-16 10:33N 44°09' E 008°55'1 0.8
2014-Dec-16 09:33N 44°10' E 008°56'1 0.7
2014-Dec-16 08:33N 44°10' E 008°57'1 0.6
2014-Dec-16 07:33N 44°10' E 008°58'1 0.6
2014-Dec-16 06:33N 44°10' E 008°58'7 6.6
2014-Dec-16 05:33N 44°17' E 008°59'1212.5
2014-Dec-16 04:33N 44°05' E 009°06'1212.1
2014-Dec-16 03:32N 43°54' E 009°12'1313.3
2014-Dec-16 02:33N 43°42' E 009°18'1615.2
2014-Dec-16 01:29N 43°26' E 009°26'1414.2
2014-Dec-16 00:30N 43°13' E 009°32'  
Track history (hours):
 
Tides and Currents Weather Stations Pressure Air Temp Water Temp Dewpoint Dewpoint Depression Visibility Wind Speed Wind Dir Waves Ship Positions

Chemstar Masa

Last reported at 2014-Dec-18 15:33 UTC. Time now 2014-Dec-18 16:23 UTC.
Position N 43°45' E 008°41'.

Length 141 m; draft 7.4 m.

Type: Tanker. MMSI: 353456000.

Date/timePositionNaut miles runAvg speedWind from/ knotsBaromVisibWave heightAir tempDewpointWater temp
2014-Dec-18 15:33N 43°45' E 008°41'1414.2
2014-Dec-18 14:33N 43°59' E 008°47'1414.2
2014-Dec-18 13:33N 44°12' E 008°54'1211.8
2014-Dec-18 12:33N 44°24' E 008°56'1 0.9
2014-Dec-18 11:33N 44°24' E 008°55'0 0.0
2014-Dec-18 10:18N 44°24' E 008°55'0 0.0
2014-Dec-18 09:33N 44°24' E 008°55'0 0.0
2014-Dec-18 07:33N 44°24' E 008°55'0 0.0
2014-Dec-18 06:27N 44°24' E 008°55'0 0.0
2014-Dec-18 05:27N 44°24' E 008°55'0 0.0
2014-Dec-18 04:33N 44°24' E 008°55'0 0.0
2014-Dec-18 03:33N 44°24' E 008°55'0 0.0
2014-Dec-18 02:27N 44°24' E 008°55'0 0.0
2014-Dec-18 01:33N 44°24' E 008°55'0 0.0
2014-Dec-18 00:33N 44°24' E 008°55'0 0.0
2014-Dec-17 23:33N 44°24' E 008°55'0 0.0
2014-Dec-17 22:33N 44°24' E 008°55'0 0.0
2014-Dec-17 21:33N 44°24' E 008°55'0 0.0
2014-Dec-17 20:33N 44°24' E 008°55'0 0.0
2014-Dec-17 19:33N 44°24' E 008°55'0 0.0
2014-Dec-17 18:33N 44°24' E 008°55'0 0.0
2014-Dec-17 17:33N 44°24' E 008°55'0 0.0
2014-Dec-17 16:33N 44°24' E 008°55'0 0.0
2014-Dec-17 15:33N 44°24' E 008°55'0 0.0
2014-Dec-17 14:33N 44°24' E 008°55'0 0.0
2014-Dec-17 12:03N 44°24' E 008°55'0 0.0
2014-Dec-17 11:33N 44°24' E 008°55'0 0.0
2014-Dec-17 10:33N 44°24' E 008°55'0 0.0
2014-Dec-17 09:33N 44°24' E 008°55'0 0.0
2014-Dec-17 08:33N 44°24' E 008°55'0 0.0
2014-Dec-17 07:33N 44°24' E 008°55'0 0.0
2014-Dec-17 06:33N 44°24' E 008°55'0 0.0
2014-Dec-17 05:15N 44°24' E 008°55'0 0.0
2014-Dec-17 04:27N 44°24' E 008°55'0 0.0
2014-Dec-17 03:33N 44°24' E 008°55'0 0.0
2014-Dec-17 02:33N 44°24' E 008°55'0 0.0
2014-Dec-17 01:33N 44°24' E 008°55'0 0.0
2014-Dec-17 00:30N 44°24' E 008°55'0 0.0
2014-Dec-16 23:27N 44°24' E 008°55'0 0.0
2014-Dec-16 22:27N 44°24' E 008°55'0 0.0
2014-Dec-16 21:27N 44°24' E 008°55'0 0.0
2014-Dec-16 20:21N 44°24' E 008°55'0 0.0
2014-Dec-16 19:33N 44°24' E 008°55'0 0.0
2014-Dec-16 18:33N 44°24' E 008°55'0 0.0
2014-Dec-16 17:33N 44°24' E 008°55'0 0.0
2014-Dec-16 16:33N 44°24' E 008°55'5 4.9
2014-Dec-16 15:33N 44°20' E 008°59'1 1.0
2014-Dec-16 14:33N 44°19' E 008°59'1 0.9
2014-Dec-16 13:33N 44°20' E 008°59'5 5.3
2014-Dec-16 12:33N 44°15' E 008°58'7 6.6
2014-Dec-16 11:33N 44°09' E 008°54'1 0.8
2014-Dec-16 10:33N 44°09' E 008°55'1 0.8
2014-Dec-16 09:33N 44°10' E 008°56'1 0.7
2014-Dec-16 08:33N 44°10' E 008°57'1 0.6
2014-Dec-16 07:33N 44°10' E 008°58'1 0.6
2014-Dec-16 06:33N 44°10' E 008°58'7 6.6
2014-Dec-16 05:33N 44°17' E 008°59'1212.5
2014-Dec-16 04:33N 44°05' E 009°06'1212.1
2014-Dec-16 03:32N 43°54' E 009°12'1313.3
2014-Dec-16 02:33N 43°42' E 009°18'1615.2
2014-Dec-16 01:29N 43°26' E 009°26'1414.2
2014-Dec-16 00:30N 43°13' E 009°32'  

Dump ship's entire track history